Time;durP1;ratioP1;P1;durP2;ratioP2;P2;SDS_P1;SDS_P2;PMS_P1;PMS_P2;Temp;Humidity;BMP_temperature;BMP_pressure;BME280_temperature;BME280_humidity;BME280_pressure;Samples;Min_cycle;Max_cycle;Signal;HPM_P1;HPM_P2
2023/08/29 00:00:26;;;;;;;4.38;3.97;;;;;;;14.30;100.00;98915.09;4862255;29;20026;-82
2023/08/29 00:02:52;;;;;;;5.03;4.53;;;;;;;14.59;100.00;98940.97;4862040;29;20089;-82
2023/08/29 00:05:18;;;;;;;4.90;4.50;;;;;;;14.72;100.00;98953.03;4862075;29;20037;-82
2023/08/29 00:07:44;;;;;;;5.70;4.65;;;;;;;14.85;100.00;98929.34;4862318;29;20033;-82
2023/08/29 00:10:09;;;;;;;5.68;4.97;;;;;;;14.73;100.00;98888.34;4861398;29;20486;-82
2023/08/29 00:12:35;;;;;;;4.65;4.25;;;;;;;14.72;100.00;98887.50;4862087;29;20469;-82
2023/08/29 00:15:03;;;;;;;6.70;4.50;;;;;;;14.77;100.00;98860.13;4861951;29;20030;-82
2023/08/29 00:17:28;;;;;;;5.70;4.55;;;;;;;14.75;100.00;98888.22;4862172;29;20112;-82
2023/08/29 00:19:54;;;;;;;6.18;5.00;;;;;;;14.67;100.00;98909.78;4862031;29;20060;-81
2023/08/29 00:22:20;;;;;;;6.85;5.15;;;;;;;14.63;100.00;98909.19;4861827;29;20021;-81
2023/08/29 00:24:46;;;;;;;5.57;5.00;;;;;;;14.67;100.00;98922.91;4861340;29;20061;-82
2023/08/29 00:27:11;;;;;;;6.25;5.30;;;;;;;14.61;100.00;98912.84;4860866;29;20021;-81
2023/08/29 00:29:37;;;;;;;5.15;4.32;;;;;;;14.47;100.00;98892.91;4860485;29;20116;-82
2023/08/29 00:32:02;;;;;;;5.55;5.03;;;;;;;14.57;100.00;98911.41;4861531;29;20146;-81
2023/08/29 00:34:28;;;;;;;6.00;5.40;;;;;;;14.47;100.00;98898.97;4861465;29;20032;-82
2023/08/29 00:36:53;;;;;;;6.10;5.15;;;;;;;14.33;100.00;98883.44;4861676;29;20493;-81
2023/08/29 00:39:18;;;;;;;5.80;4.93;;;;;;;14.50;100.00;98910.22;4860050;29;20166;-82
2023/08/29 00:41:48;;;;;;;9.15;4.80;;;;;;;14.36;100.00;98870.09;4861448;29;20025;-81
2023/08/29 00:44:13;;;;;;;5.72;5.05;;;;;;;14.07;100.00;98850.47;4861353;29;20034;-81
2023/08/29 00:46:42;;;;;;;6.18;5.30;;;;;;;14.38;100.00;98925.03;4861710;29;20029;-83
2023/08/29 00:49:08;;;;;;;6.05;4.95;;;;;;;14.29;100.00;98920.47;4859703;29;20032;-81
2023/08/29 00:51:34;;;;;;;6.05;5.30;;;;;;;14.14;100.00;98922.41;4859961;29;20422;-81
2023/08/29 00:54:01;;;;;;;5.53;4.60;;;;;;;14.18;100.00;98939.56;4860841;29;20075;-81
2023/08/29 00:56:26;;;;;;;5.53;4.85;;;;;;;14.19;100.00;98934.22;4861280;29;20025;-81
2023/08/29 00:58:52;;;;;;;5.72;4.45;;;;;;;14.09;100.00;98920.13;4861528;29;20081;-81
2023/08/29 01:01:18;;;;;;;7.20;3.90;;;;;;;13.99;100.00;98895.56;4860969;29;20030;-81
2023/08/29 01:03:44;;;;;;;4.47;3.60;;;;;;;13.98;100.00;98886.03;4861363;29;20057;-81
2023/08/29 01:06:11;;;;;;;4.22;3.83;;;;;;;13.82;100.00;98836.59;4860992;29;20025;-81
2023/08/29 01:08:37;;;;;;;4.60;4.20;;;;;;;13.95;100.00;98849.63;4860945;29;20414;-81
2023/08/29 01:11:24;;;;;;;7.57;3.50;;;;;;;14.03;100.00;98867.34;4860939;29;20021;-81
2023/08/29 01:14:11;;;;;;;4.53;3.67;;;;;;;13.90;100.00;98912.75;4860928;29;20113;-81
2023/08/29 01:16:42;;;;;;;5.30;3.72;;;;;;;13.82;100.00;98946.53;4860780;29;20022;-81
2023/08/29 01:19:13;;;;;;;3.17;2.88;;;;;;;13.75;100.00;98942.66;4860525;29;20431;-81
2023/08/29 01:22:03;;;;;;;3.73;3.10;;;;;;;13.76;100.00;98938.25;4860848;29;20097;-81
2023/08/29 01:24:42;;;;;;;3.50;3.05;;;;;;;13.70;100.00;98910.75;4860798;29;20383;-81
2023/08/29 01:27:08;;;;;;;3.55;2.90;;;;;;;13.70;100.00;98927.28;4860593;29;20037;-81
2023/08/29 01:29:34;;;;;;;3.25;2.95;;;;;;;13.70;100.00;98906.34;4860602;29;20022;-81
2023/08/29 01:32:00;;;;;;;4.32;3.92;;;;;;;13.61;100.00;98901.78;4860525;29;20072;-81
2023/08/29 01:34:26;;;;;;;6.53;3.40;;;;;;;13.53;100.00;98880.56;4864778;29;20104;-82
2023/08/29 01:36:52;;;;;;;3.78;3.47;;;;;;;13.64;100.00;98875.38;4878743;29;20167;-82
2023/08/29 01:39:17;;;;;;;3.88;3.53;;;;;;;13.58;100.00;98828.72;4878816;29;20032;-82
2023/08/29 01:41:43;;;;;;;4.25;2.97;;;;;;;13.35;100.00;98770.19;4878905;29;20029;-82
2023/08/29 01:44:08;;;;;;;10.75;4.60;;;;;;;13.41;100.00;98788.09;4878872;29;20033;-82
2023/08/29 01:46:33;;;;;;;3.88;3.50;;;;;;;13.55;100.00;98802.78;4879241;29;20120;-82
2023/08/29 01:49:01;;;;;;;5.10;4.60;;;;;;;13.32;100.00;98764.38;4878725;29;20077;-82
2023/08/29 01:51:27;;;;;;;4.95;4.43;;;;;;;13.35;100.00;98766.75;4878873;29;20040;-82
2023/08/29 01:53:53;;;;;;;5.80;4.25;;;;;;;13.12;100.00;98726.53;4878672;29;20025;-82
2023/08/29 01:56:20;;;;;;;5.55;4.97;;;;;;;13.21;100.00;98718.88;4878406;29;20045;-82
2023/08/29 01:58:47;;;;;;;5.10;4.60;;;;;;;13.14;100.00;98686.25;4877514;29;20072;-82
2023/08/29 02:01:13;;;;;;;8.30;4.80;;;;;;;13.12;100.00;98648.94;4878864;29;20037;-82
2023/08/29 02:03:39;;;;;;;5.10;4.63;;;;;;;12.96;100.00;98593.50;4878729;29;20025;-82
2023/08/29 02:06:04;;;;;;;5.93;5.43;;;;;;;12.81;100.00;98565.88;4878475;29;20033;-82
2023/08/29 02:08:30;;;;;;;6.45;5.32;;;;;;;12.80;100.00;98574.66;4861585;29;20021;-82
2023/08/29 02:10:55;;;;;;;5.65;5.15;;;;;;;12.94;100.00;98585.78;4878256;29;20036;-82
2023/08/29 02:13:20;;;;;;;7.85;7.05;;;;;;;12.64;100.00;98510.47;4878108;29;20033;-82
2023/08/29 02:15:46;;;;;;;31.77;18.45;;;;;;;12.87;100.00;98541.91;4878886;29;20054;-82
2023/08/29 02:18:11;;;;;;;8.48;7.68;;;;;;;12.89;100.00;98550.47;4877979;29;20107;-82
2023/08/29 02:20:37;;;;;;;7.10;6.40;;;;;;;12.67;100.00;98543.38;4878341;29;20055;-82
2023/08/29 02:23:02;;;;;;;6.55;5.72;;;;;;;12.76;100.00;98540.06;4878216;29;20025;-82
2023/08/29 02:25:28;;;;;;;7.63;6.82;;;;;;;12.57;100.00;98513.66;4878279;29;20032;-82
2023/08/29 02:27:54;;;;;;;8.60;5.90;;;;;;;12.65;100.00;98513.91;4878338;29;20458;-82
2023/08/29 02:30:19;;;;;;;7.15;6.45;;;;;;;12.69;100.00;98495.28;4878144;29;20031;-82
2023/08/29 02:32:45;;;;;;;8.73;7.10;;;;;;;12.69;100.00;98520.59;4878353;29;20025;-82
2023/08/29 02:35:11;;;;;;;7.22;6.45;;;;;;;12.65;100.00;98534.81;4878130;29;20120;-82
2023/08/29 02:37:36;;;;;;;8.48;7.65;;;;;;;12.57;100.00;98480.53;4878244;29;20144;-82
2023/08/29 02:40:05;;;;;;;8.35;7.30;;;;;;;12.65;100.00;98501.69;4877932;29;20028;-82
2023/08/29 02:42:31;;;;;;;9.30;8.15;;;;;;;12.69;100.00;98497.91;4861763;29;20033;-82
2023/08/29 02:44:56;;;;;;;9.10;8.20;;;;;;;12.65;100.00;98508.69;4878407;29;20024;-83
2023/08/29 02:47:22;;;;;;;9.50;7.30;;;;;;;12.57;100.00;98490.13;4878294;29;20029;-83
2023/08/29 02:49:47;;;;;;;8.48;7.68;;;;;;;12.52;100.00;98484.44;4880303;29;20137;-83
2023/08/29 02:52:12;;;;;;;8.35;7.57;;;;;;;12.58;100.00;98492.63;4864965;29;20406;-83
2023/08/29 02:54:38;;;;;;;8.07;7.28;;;;;;;12.72;100.00;98541.25;4881640;29;20017;-83
2023/08/29 02:57:03;;;;;;;8.32;7.57;;;;;;;12.53;100.00;98493.91;4881630;29;20025;-83
2023/08/29 02:59:29;;;;;;;7.57;6.88;;;;;;;12.26;100.00;98426.25;4881820;29;20021;-83
2023/08/29 03:01:54;;;;;;;7.50;6.80;;;;;;;12.80;100.00;98510.16;4882068;29;20040;-83
2023/08/29 03:04:19;;;;;;;9.55;7.88;;;;;;;12.64;100.00;98491.34;4881585;29;20025;-83
2023/08/29 03:06:45;;;;;;;8.20;7.40;;;;;;;12.81;100.00;98511.84;4880466;29;20029;-83
2023/08/29 03:09:10;;;;;;;7.72;6.97;;;;;;;12.59;100.00;98475.16;4881017;29;20041;-83
2023/08/29 03:11:35;;;;;;;8.38;7.13;;;;;;;12.60;100.00;98487.28;4881743;29;20041;-83
2023/08/29 03:14:03;;;;;;;8.40;7.60;;;;;;;12.63;100.00;98485.28;4881628;29;20398;-83
2023/08/29 03:16:29;;;;;;;8.35;7.57;;;;;;;12.69;100.00;98497.91;4880326;29;20453;-83
2023/08/29 03:18:55;;;;;;;8.90;7.68;;;;;;;12.93;100.00;98534.44;4881443;29;20117;-83
2023/08/29 03:21:21;;;;;;;8.35;7.63;;;;;;;12.90;100.00;98512.94;4881213;29;20029;-83
2023/08/29 03:23:46;;;;;;;8.52;7.72;;;;;;;13.02;100.00;98568.69;4881300;29;20119;-83
2023/08/29 03:26:11;;;;;;;7.90;7.20;;;;;;;12.97;100.00;98562.00;4864318;29;20058;-83
2023/08/29 03:28:37;;;;;;;6.97;6.28;;;;;;;12.98;100.00;98555.03;4864705;29;20089;-83
2023/08/29 03:31:13;;;;;;;7.00;6.40;;;;;;;13.04;100.00;98559.78;4881356;29;20032;-83
2023/08/29 03:33:39;;;;;;;7.75;7.05;;;;;;;13.13;100.00;98551.25;4881195;29;20377;-83
2023/08/29 03:36:05;;;;;;;7.07;6.47;;;;;;;13.07;100.00;98494.22;4880944;29;20029;-83
2023/08/29 03:38:34;;;;;;;7.78;7.07;;;;;;;13.16;100.00;98484.84;4864199;29;20416;-83
2023/08/29 03:40:59;;;;;;;8.25;6.40;;;;;;;13.07;100.00;98490.78;4881305;29;20057;-83
2023/08/29 03:43:28;;;;;;;7.38;6.75;;;;;;;13.25;100.00;98519.97;4880990;29;20071;-83
2023/08/29 03:45:58;;;;;;;6.43;5.93;;;;;;;13.19;100.00;98489.84;4881054;29;20029;-83
2023/08/29 03:48:23;;;;;;;7.82;7.03;;;;;;;13.44;100.00;98528.06;4880771;29;20157;-83
2023/08/29 03:50:49;;;;;;;7.50;6.53;;;;;;;13.39;100.00;98498.81;4864093;29;20037;-83
2023/08/29 03:53:14;;;;;;;7.38;6.68;;;;;;;13.48;100.00;98511.19;4880373;29;20031;-85
2023/08/29 03:55:39;;;;;;;7.28;6.13;;;;;;;13.29;100.00;98490.84;4880641;29;20036;-85
2023/08/29 03:58:05;;;;;;;7.38;6.53;;;;;;;13.50;100.00;98516.31;4880793;29;20081;-85
2023/08/29 04:00:31;;;;;;;8.38;7.68;;;;;;;13.49;100.00;98520.72;4894839;29;20119;-85
2023/08/29 04:02:56;;;;;;;6.85;6.25;;;;;;;13.52;100.00;98489.06;4863967;29;20505;-85
2023/08/29 04:05:22;;;;;;;8.00;6.43;;;;;;;13.33;100.00;98476.59;4878995;29;20036;-85
2023/08/29 04:07:47;;;;;;;7.13;6.53;;;;;;;13.43;100.00;98503.69;4880842;29;20054;-85
2023/08/29 04:10:13;;;;;;;6.95;6.35;;;;;;;13.43;100.00;98508.91;4880228;29;20128;-85
2023/08/29 04:12:38;;;;;;;6.78;6.20;;;;;;;13.47;100.00;98488.59;4880457;29;20029;-85
2023/08/29 04:15:04;;;;;;;7.15;6.47;;;;;;;13.46;100.00;98479.91;4880417;29;20453;-85
2023/08/29 04:17:29;;;;;;;7.70;6.90;;;;;;;13.56;100.00;98487.88;4880513;29;20073;-85
2023/08/29 04:19:55;;;;;;;8.13;7.32;;;;;;;13.54;100.00;98488.97;4880458;29;20120;-86
2023/08/29 04:22:20;;;;;;;6.55;5.88;;;;;;;13.58;100.00;98521.78;4880106;29;20496;-85
2023/08/29 04:24:45;;;;;;;6.45;5.85;;;;;;;13.55;100.00;98529.88;4880271;29;20029;-85
2023/08/29 04:27:11;;;;;;;6.85;6.18;;;;;;;13.66;100.00;98551.66;4880163;29;20085;-85
2023/08/29 04:29:36;;;;;;;6.50;5.90;;;;;;;13.71;100.00;98574.84;4880282;29;20025;-85
2023/08/29 04:32:01;;;;;;;6.75;6.03;;;;;;;13.61;100.00;98573.84;4880239;29;20025;-85
2023/08/29 04:34:27;;;;;;;7.28;6.55;;;;;;;13.63;100.00;98567.56;4879879;29;20032;-85
2023/08/29 04:36:52;;;;;;;6.55;5.95;;;;;;;13.73;100.00;98586.84;4880596;29;20033;-85
2023/08/29 04:39:20;;;;;;;7.28;6.68;;;;;;;13.77;100.00;98602.31;4879970;29;20410;-85
2023/08/29 04:41:46;;;;;;;7.15;6.47;;;;;;;13.67;100.00;98579.47;4894489;29;20025;-85
2023/08/29 04:44:11;;;;;;;8.05;6.97;;;;;;;13.71;100.00;98570.44;4863071;29;20052;-85
2023/08/29 04:46:36;;;;;;;7.40;6.80;;;;;;;13.77;100.00;98582.22;4863234;29;20107;-85
2023/08/29 04:49:03;;;;;;;8.45;7.57;;;;;;;13.72;100.00;98574.72;4880018;29;20029;-85
2023/08/29 04:51:29;;;;;;;5.95;5.45;;;;;;;13.74;100.00;98595.53;4879510;29;20490;-86
2023/08/29 04:53:54;;;;;;;7.40;6.70;;;;;;;13.81;100.00;98619.44;4880033;29;20064;-85
2023/08/29 04:56:19;;;;;;;7.13;6.53;;;;;;;13.84;100.00;98627.91;4879621;29;20461;-85
2023/08/29 04:58:45;;;;;;;5.57;5.07;;;;;;;13.76;100.00;98614.56;4879676;29;20029;-86
2023/08/29 05:01:10;;;;;;;5.68;5.18;;;;;;;13.88;100.00;98629.34;4879521;29;20112;-85
2023/08/29 05:03:35;;;;;;;5.55;5.05;;;;;;;13.79;100.00;98614.34;4879598;29;20115;-85
2023/08/29 05:06:01;;;;;;;5.35;4.88;;;;;;;14.06;100.00;98678.63;4879565;29;20372;-85
2023/08/29 05:08:26;;;;;;;5.72;5.22;;;;;;;14.05;100.00;98698.75;4879348;29;20025;-86
2023/08/29 05:10:52;;;;;;;6.07;5.47;;;;;;;14.15;100.00;98707.53;4878192;29;20068;-86
2023/08/29 05:13:17;;;;;;;5.50;5.00;;;;;;;14.27;100.00;98700.53;4878614;29;20025;-85
2023/08/29 05:15:43;;;;;;;5.55;5.03;;;;;;;14.27;100.00;98697.91;4862733;29;20025;-86
2023/08/29 05:18:08;;;;;;;5.95;5.38;;;;;;;14.38;100.00;98687.47;4879425;29;20109;-86
2023/08/29 05:20:33;;;;;;;6.78;5.10;;;;;;;14.29;100.00;98653.31;4879090;29;20040;-85
2023/08/29 05:22:59;;;;;;;6.07;5.32;;;;;;;14.36;100.00;98644.81;4878238;29;20017;-86
2023/08/29 05:25:24;;;;;;;6.88;6.22;;;;;;;14.27;100.00;98636.84;4879197;29;20537;-85
2023/08/29 05:27:50;;;;;;;6.03;5.43;;;;;;;14.34;100.00;98638.88;4879405;29;20483;-85
2023/08/29 05:30:15;;;;;;;5.93;5.38;;;;;;;14.46;100.00;98648.41;4877770;29;20029;-85
2023/08/29 05:32:40;;;;;;;5.80;5.30;;;;;;;14.33;100.00;98613.66;4879150;29;20039;-86
2023/08/29 05:35:09;;;;;;;6.28;5.75;;;;;;;14.38;100.00;98592.31;4878882;29;20032;-85
2023/08/29 05:37:35;;;;;;;6.53;5.93;;;;;;;14.47;100.00;98581.13;4879049;29;20631;-85
2023/08/29 05:40:00;;;;;;;6.78;6.18;;;;;;;14.52;100.00;98573.75;4877825;29;20040;-86
2023/08/29 05:42:26;;;;;;;6.80;6.20;;;;;;;14.51;100.00;98571.25;4878861;29;20021;-86
2023/08/29 05:44:51;;;;;;;7.45;6.70;;;;;;;14.53;100.00;98562.31;4879086;29;20033;-85
2023/08/29 05:47:17;;;;;;;7.57;6.60;;;;;;;14.47;100.00;98554.91;4861796;29;20024;-86
2023/08/29 05:49:42;;;;;;;6.32;5.82;;;;;;;14.50;100.00;98546.03;4878753;29;20088;-86
2023/08/29 05:52:07;;;;;;;7.90;7.20;;;;;;;14.46;100.00;98530.50;4878980;29;20025;-86
2023/08/29 05:54:36;;;;;;;8.52;6.95;;;;;;;14.47;100.00;98518.25;4878545;29;20025;-85
2023/08/29 05:57:02;;;;;;;8.43;7.50;;;;;;;14.41;100.00;98510.84;4878766;29;20532;-86
2023/08/29 05:59:28;;;;;;;7.57;6.97;;;;;;;14.35;100.00;98500.88;4878504;29;20047;-85
2023/08/29 06:01:53;;;;;;;8.05;7.35;;;;;;;14.26;100.00;98485.91;4878606;29;20027;-85
2023/08/29 06:04:18;;;;;;;9.38;8.48;;;;;;;14.18;100.00;98487.34;4877129;29;20116;-85
2023/08/29 06:06:43;;;;;;;9.10;8.30;;;;;;;14.25;100.00;98484.25;4862361;29;20033;-85
2023/08/29 06:09:09;;;;;;;9.80;8.80;;;;;;;14.18;100.00;98481.28;4878640;29;20385;-85
2023/08/29 06:11:34;;;;;;;9.68;8.70;;;;;;;14.18;100.00;98482.09;4861790;29;20037;-85
2023/08/29 06:14:01;;;;;;;8.45;7.63;;;;;;;14.30;100.00;98526.63;4861595;29;20041;-85
2023/08/29 06:16:27;;;;;;;8.60;7.78;;;;;;;14.25;100.00;98534.00;4878212;29;20132;-85
2023/08/29 06:18:52;;;;;;;8.88;7.97;;;;;;;14.36;100.00;98555.75;4878292;29;20103;-86
2023/08/29 06:21:19;;;;;;;7.93;7.18;;;;;;;14.34;100.00;98565.53;4861641;29;20115;-86
2023/08/29 06:23:44;;;;;;;8.38;7.57;;;;;;;14.44;100.00;98597.91;4877654;29;20037;-86
2023/08/29 06:26:09;;;;;;;7.57;6.90;;;;;;;14.39;100.00;98588.75;4866143;29;20363;-85
2023/08/29 06:28:35;;;;;;;8.57;7.78;;;;;;;14.39;100.00;98571.25;4859624;29;20627;-85
2023/08/29 06:31:05;;;;;;;7.55;6.85;;;;;;;14.55;100.00;98597.09;4859755;29;20021;-86
2023/08/29 06:33:30;;;;;;;9.02;8.15;;;;;;;14.51;100.00;98594.84;4859463;29;20133;-86
2023/08/29 06:35:56;;;;;;;8.73;7.88;;;;;;;14.48;100.00;98609.84;4859846;29;20105;-86
2023/08/29 06:38:22;;;;;;;8.70;7.43;;;;;;;14.53;100.00;98629.59;4859583;29;20075;-86
2023/08/29 06:40:54;;;;;;;8.93;8.13;;;;;;;14.54;100.00;98623.41;4858204;29;20049;-85
2023/08/29 06:43:20;;;;;;;9.85;8.85;;;;;;;14.61;100.00;98635.91;4859428;29;20041;-85
2023/08/29 06:45:45;;;;;;;10.23;9.23;;;;;;;14.61;100.00;98633.28;4859320;29;20025;-85
2023/08/29 06:48:10;;;;;;;12.60;11.30;;;;;;;14.56;100.00;98606.59;4859665;29;20104;-86
2023/08/29 06:50:36;;;;;;;12.90;11.57;;;;;;;14.64;100.00;98601.59;4858259;29;20117;-86
2023/08/29 06:53:02;;;;;;;11.45;9.90;;;;;;;14.72;100.00;98621.94;4859681;29;20057;-86
2023/08/29 06:55:31;;;;;;;11.77;10.30;;;;;;;14.56;100.00;98592.69;4859408;29;20520;-85
2023/08/29 06:57:57;;;;;;;10.48;9.48;;;;;;;14.65;100.00;98605.03;4859381;29;20057;-86
2023/08/29 07:00:23;;;;;;;11.07;9.90;;;;;;;14.59;100.00;98609.00;4859216;29;20029;-92
2023/08/29 07:02:48;;;;;;;11.35;10.27;;;;;;;14.52;100.00;98604.34;4858469;29;20034;-85
2023/08/29 07:05:14;;;;;;;10.50;9.50;;;;;;;14.29;100.00;98565.06;4859631;29;20032;-86
2023/08/29 07:07:40;;;;;;;10.55;9.45;;;;;;;14.61;100.00;98627.19;4842599;29;20039;-85
2023/08/29 07:10:06;;;;;;;10.35;9.38;;;;;;;14.57;100.00;98625.78;4859533;29;20541;-85
2023/08/29 07:12:32;;;;;;;11.43;10.13;;;;;;;14.44;100.00;98589.22;4859225;29;20101;-86
2023/08/29 07:14:58;;;;;;;11.13;9.90;;;;;;;14.65;100.00;98613.72;4859287;29;20026;-85
2023/08/29 07:17:24;;;;;;;12.32;10.75;;;;;;;14.58;100.00;98596.84;4859455;29;20034;-86
2023/08/29 07:19:49;;;;;;;11.25;10.13;;;;;;;14.57;100.00;98592.53;4859611;29;20447;-85
2023/08/29 07:22:15;;;;;;;32.60;25.45;;;;;;;14.59;100.00;98600.31;4859858;29;20030;-86
2023/08/29 07:24:41;;;;;;;31.23;27.70;;;;;;;14.56;100.00;98601.38;4859221;29;20030;-85
2023/08/29 07:27:06;;;;;;;17.95;15.85;;;;;;;14.45;100.00;98589.09;4859324;29;20442;-86
2023/08/29 07:29:31;;;;;;;14.55;13.05;;;;;;;14.60;100.00;98613.28;4842330;29;20108;-86
2023/08/29 07:31:57;;;;;;;12.95;11.52;;;;;;;14.70;100.00;98611.56;4842789;29;20022;-85
2023/08/29 07:34:23;;;;;;;11.30;10.20;;;;;;;14.72;100.00;98603.59;4859157;29;20037;-85
2023/08/29 07:36:48;;;;;;;9.88;8.88;;;;;;;14.81;100.00;98604.66;4862732;29;20029;-85
2023/08/29 07:39:16;;;;;;;10.13;8.68;;;;;;;14.89;100.00;98599.63;4862922;29;20476;-85
2023/08/29 07:41:41;;;;;;;9.40;8.40;;;;;;;14.93;100.00;98607.13;4862389;29;20053;-92
2023/08/29 07:44:07;;;;;;;9.90;8.52;;;;;;;14.56;100.00;98538.47;4845965;29;20432;-83
2023/08/29 07:46:32;;;;;;;8.73;7.82;;;;;;;15.03;100.00;98595.88;4862453;29;20021;-84
2023/08/29 07:48:58;;;;;;;8.35;7.55;;;;;;;14.94;100.00;98584.34;4845917;29;20033;-83
2023/08/29 07:51:23;;;;;;;8.52;7.50;;;;;;;15.18;100.00;98632.19;4862244;29;20032;-83
2023/08/29 07:53:49;;;;;;;8.05;7.25;;;;;;;15.04;100.00;98613.25;4862397;29;20029;-83
2023/08/29 07:56:14;;;;;;;8.73;7.57;;;;;;;15.06;100.00;98614.81;4845731;29;20029;-83
2023/08/29 07:58:39;;;;;;;8.18;7.40;;;;;;;15.20;100.00;98638.13;4862167;29;20026;-83
2023/08/29 08:01:05;;;;;;;8.35;7.53;;;;;;;15.11;100.00;98641.50;4862381;29;20036;-83
2023/08/29 08:03:30;;;;;;;7.72;6.93;;;;;;;15.01;100.00;98616.16;4862172;29;20538;-83
2023/08/29 08:05:56;;;;;;;8.60;7.07;;;;;;;15.05;100.00;98607.09;4862253;29;20365;-83
2023/08/29 08:08:21;;;;;;;6.70;6.00;;;;;;;15.30;100.00;98646.09;4862164;29;20417;-83
2023/08/29 08:10:47;;;;;;;7.13;6.45;;;;;;;15.24;100.00;98615.09;4861750;29;20049;-83
2023/08/29 08:13:12;;;;;;;7.20;6.20;;;;;;;15.45;100.00;98634.31;4861875;29;20033;-83
2023/08/29 08:15:37;;;;;;;6.85;6.15;;;;;;;15.60;100.00;98632.22;4861669;29;20042;-83
2023/08/29 08:18:03;;;;;;;6.90;6.05;;;;;;;15.78;100.00;98632.50;4862030;29;20429;-83
2023/08/29 08:20:28;;;;;;;7.50;5.95;;;;;;;15.86;100.00;98609.03;4860669;29;20481;-83
2023/08/29 08:22:54;;;;;;;6.97;6.28;;;;;;;16.00;100.00;98615.75;4851628;29;20893;-83
2023/08/29 08:25:19;;;;;;;6.22;5.63;;;;;;;16.17;100.00;98635.31;4860550;29;20021;-83
2023/08/29 08:27:45;;;;;;;7.18;6.50;;;;;;;16.30;100.00;98643.78;4860300;29;20037;-83
2023/08/29 08:30:10;;;;;;;6.85;6.15;;;;;;;16.40;100.00;98646.47;4860352;29;20097;-83
2023/08/29 08:32:36;;;;;;;6.20;5.60;;;;;;;16.23;100.00;98641.84;4859692;29;20150;-83
2023/08/29 08:35:04;;;;;;;7.38;6.68;;;;;;;16.18;100.00;98648.34;4860050;29;20029;-83
2023/08/29 08:37:32;;;;;;;8.63;6.30;;;;;;;16.10;100.00;98657.84;4859811;29;20037;-83
2023/08/29 08:39:58;;;;;;;6.40;5.80;;;;;;;15.79;100.00;98620.19;4860060;29;20050;-83
2023/08/29 08:42:23;;;;;;;7.50;6.28;;;;;;;15.89;100.00;98647.34;4873848;29;20029;-83
2023/08/29 08:44:49;;;;;;;7.03;6.32;;;;;;;15.81;100.00;98627.00;4879839;29;20108;-83
2023/08/29 08:47:14;;;;;;;8.85;6.50;;;;;;;15.91;100.00;98633.13;4867129;29;20039;-83
2023/08/29 08:49:40;;;;;;;9.38;7.78;;;;;;;15.86;100.00;98610.84;4844194;29;20021;-83
2023/08/29 08:52:07;;;;;;;7.25;6.53;;;;;;;16.04;100.00;98632.91;4860919;29;20033;-83
2023/08/29 08:54:32;;;;;;;8.60;7.65;;;;;;;16.07;100.00;98630.03;4860862;29;20030;-83
2023/08/29 08:56:58;;;;;;;8.10;7.25;;;;;;;15.93;100.00;98601.50;4860645;29;20033;-83
2023/08/29 08:59:27;;;;;;;10.98;7.70;;;;;;;15.97;100.00;98605.53;4860904;29;20070;-83
2023/08/29 09:01:56;;;;;;;9.52;7.15;;;;;;;16.15;100.00;98610.97;4860646;29;20074;-83
2023/08/29 09:04:22;;;;;;;7.57;6.80;;;;;;;16.23;100.00;98607.69;4860922;29;20029;-83
2023/08/29 09:06:48;;;;;;;7.80;7.00;;;;;;;16.27;100.00;98625.69;4860400;29;20037;-83
2023/08/29 09:09:18;;;;;;;8.85;7.32;;;;;;;16.38;100.00;98635.25;4859187;29;20045;-83
2023/08/29 09:11:50;;;;;;;7.03;6.25;;;;;;;16.61;100.00;98641.97;4860290;29;20066;-83
2023/08/29 09:14:16;;;;;;;7.95;7.05;;;;;;;16.71;100.00;98611.28;4860719;29;20029;-83
2023/08/29 09:16:42;;;;;;;7.07;6.38;;;;;;;16.89;100.00;98623.78;4843551;29;20031;-83
2023/08/29 09:19:08;;;;;;;7.45;6.75;;;;;;;16.86;100.00;98610.94;4860518;29;20039;-83
2023/08/29 09:21:35;;;;;;;7.40;6.70;;;;;;;16.78;100.00;98605.53;4860148;29;20496;-83
2023/08/29 09:24:01;;;;;;;7.82;7.03;;;;;;;16.63;100.00;98602.41;4860468;29;20044;-83
2023/08/29 09:26:32;;;;;;;6.97;6.28;;;;;;;16.68;100.00;98614.16;4859970;29;20029;-83
2023/08/29 09:28:58;;;;;;;7.03;6.35;;;;;;;16.45;100.00;98568.06;4843984;29;20491;-83
2023/08/29 09:31:23;;;;;;;6.97;6.05;;;;;;;16.71;100.00;98608.66;4860453;29;20118;-83
2023/08/29 09:33:49;;;;;;;7.20;6.50;;;;;;;16.52;100.00;98573.59;4860284;29;20112;-83
2023/08/29 09:36:14;;;;;;;7.32;6.35;;;;;;;16.53;100.00;98589.25;4860508;29;20035;-84
2023/08/29 09:38:40;;;;;;;8.68;7.63;;;;;;;16.61;100.00;98599.09;4859915;29;20061;-83
2023/08/29 09:41:13;;;;;;;8.88;7.80;;;;;;;16.64;100.00;98611.94;4860015;29;20029;-83
2023/08/29 09:43:47;;;;;;;8.50;7.70;;;;;;;16.66;100.00;98626.63;4841722;29;20116;-83
2023/08/29 09:46:12;;;;;;;8.32;7.18;;;;;;;16.59;100.00;98625.50;4842102;29;20061;-83
2023/08/29 09:48:53;;;;;;;10.43;7.93;;;;;;;16.53;100.00;98609.44;4841780;29;20426;-83
2023/08/29 09:51:20;;;;;;;7.60;6.90;;;;;;;16.50;100.00;98604.44;4841935;29;20098;-83
2023/08/29 09:53:46;;;;;;;8.63;7.80;;;;;;;16.45;100.00;98602.22;4841937;29;20053;-83
2023/08/29 09:56:11;;;;;;;8.50;7.70;;;;;;;16.54;100.00;98611.09;4842263;29;20471;-83
2023/08/29 09:58:38;;;;;;;9.88;8.90;;;;;;;16.56;100.00;98622.31;4838672;29;20086;-83
2023/08/29 10:01:07;;;;;;;8.70;7.80;;;;;;;16.41;100.00;98617.44;4839377;29;20046;-83
2023/08/29 10:03:35;;;;;;;9.00;8.10;;;;;;;16.54;100.00;98640.03;4839380;29;20042;-83
2023/08/29 10:06:05;;;;;;;9.50;7.82;;;;;;;16.51;100.00;98638.47;4839336;29;20434;-84
2023/08/29 10:08:43;;;;;;;8.32;7.25;;;;;;;16.44;100.00;98618.97;4839089;29;20656;-83
2023/08/29 10:11:09;;;;;;;9.13;8.23;;;;;;;16.28;100.00;98614.22;4822191;29;20046;-83
2023/08/29 10:13:36;;;;;;;10.40;9.25;;;;;;;16.26;100.00;98616.13;4823183;29;20049;-84
2023/08/29 10:16:03;;;;;;;8.30;7.50;;;;;;;16.18;100.00;98608.94;4838874;29;20073;-83
2023/08/29 10:18:30;;;;;;;9.15;8.13;;;;;;;16.34;100.00;98639.13;4823279;29;20753;-83
2023/08/29 10:20:59;;;;;;;9.45;7.18;;;;;;;16.28;100.00;98635.22;4838465;29;20113;-83
2023/08/29 10:23:26;;;;;;;9.88;7.28;;;;;;;16.31;100.00;98626.25;4838406;29;20080;-83
2023/08/29 10:25:52;;;;;;;9.20;7.65;;;;;;;16.27;100.00;98609.09;4856700;29;20029;-83
2023/08/29 10:28:18;;;;;;;8.15;7.30;;;;;;;16.33;100.00;98614.63;4856986;29;20070;-83
2023/08/29 10:30:51;;;;;;;7.68;6.97;;;;;;;16.52;100.00;98634.91;4849438;29;20074;-84
2023/08/29 10:33:18;;;;;;;8.75;7.82;;;;;;;16.48;100.00;98627.44;4840667;29;20033;-84
2023/08/29 10:35:47;;;;;;;9.43;8.07;;;;;;;16.56;100.00;98631.03;4841420;29;20026;-83
2023/08/29 10:38:14;;;;;;;9.05;7.70;;;;;;;16.59;100.00;98629.94;4840960;29;20026;-83
2023/08/29 10:40:39;;;;;;;8.77;7.63;;;;;;;16.38;100.00;98604.56;4847525;29;20393;-83
2023/08/29 10:43:17;;;;;;;8.90;7.90;;;;;;;16.46;100.00;98615.22;4839616;29;20030;-84
2023/08/29 10:46:11;;;;;;;8.82;7.93;;;;;;;16.68;100.00;98634.38;4841304;29;20114;-83
2023/08/29 10:48:39;;;;;;;9.63;8.63;;;;;;;16.64;100.00;98639.09;4781101;29;20103;-84
2023/08/29 10:51:10;;;;;;;9.23;8.30;;;;;;;16.70;100.00;98640.34;4783675;29;20039;-83
2023/08/29 10:54:14;;;;;;;8.10;7.30;;;;;;;16.76;100.00;98628.47;4783596;29;20118;-83
2023/08/29 10:56:42;;;;;;;9.18;8.27;;;;;;;16.84;100.00;98634.72;4783617;29;20077;-83
2023/08/29 10:59:31;;;;;;;9.40;8.50;;;;;;;16.88;100.00;98640.53;4783674;29;20563;-84
2023/08/29 11:02:29;;;;;;;8.73;7.82;;;;;;;16.92;100.00;98653.28;4801523;29;20031;-84
2023/08/29 11:05:03;;;;;;;8.85;7.95;;;;;;;16.89;100.00;98650.09;4801491;29;20129;-84
2023/08/29 11:07:29;;;;;;;8.60;7.80;;;;;;;16.73;100.00;98621.72;4802052;29;20367;-83
2023/08/29 11:10:13;;;;;;;10.93;9.45;;;;;;;16.74;100.00;98639.13;4802321;29;20051;-84
2023/08/29 11:13:06;;;;;;;10.40;9.32;;;;;;;16.88;100.00;98664.22;4805245;29;20118;-84
2023/08/29 11:15:49;;;;;;;9.60;7.97;;;;;;;16.88;100.00;98636.09;4769220;30;20118;-84
2023/08/29 11:18:22;;;;;;;11.05;9.68;;;;;;;16.83;100.00;98627.81;4769410;30;20056;-84
2023/08/29 11:20:47;;;;;;;11.85;9.60;;;;;;;16.88;100.00;98643.16;4768704;30;20051;-84
2023/08/29 11:23:13;;;;;;;11.30;9.48;;;;;;;16.70;100.00;98608.78;4769231;30;20123;-84